sensor_id;sensor_type;location;lat;lon;timestamp;P1;durP1;ratioP1;P2;durP2;ratioP2
6215;SDS011;3141;49.234;9.326;2024-02-15T00:00:14;8.27;;;5.75;;
6215;SDS011;3141;49.234;9.326;2024-02-15T00:00:58;8.10;;;6.32;;
6215;SDS011;3141;49.234;9.326;2024-02-15T00:01:42;8.10;;;5.93;;
6215;SDS011;3141;49.234;9.326;2024-02-15T00:02:24;8.43;;;6.23;;
6215;SDS011;3141;49.234;9.326;2024-02-15T00:03:06;6.23;;;4.97;;
6215;SDS011;3141;49.234;9.326;2024-02-15T00:03:49;6.87;;;6.03;;
6215;SDS011;3141;49.234;9.326;2024-02-15T00:04:32;7.55;;;5.63;;
6215;SDS011;3141;49.234;9.326;2024-02-15T00:05:15;10.02;;;5.35;;
6215;SDS011;3141;49.234;9.326;2024-02-15T00:05:58;9.87;;;5.70;;
6215;SDS011;3141;49.234;9.326;2024-02-15T00:06:40;12.90;;;5.67;;
6215;SDS011;3141;49.234;9.326;2024-02-15T00:07:23;8.07;;;6.27;;
6215;SDS011;3141;49.234;9.326;2024-02-15T00:08:05;5.30;;;4.77;;
6215;SDS011;3141;49.234;9.326;2024-02-15T00:08:48;7.70;;;5.83;;
6215;SDS011;3141;49.234;9.326;2024-02-15T00:09:31;7.22;;;5.35;;
6215;SDS011;3141;49.234;9.326;2024-02-15T00:10:14;6.27;;;5.60;;
6215;SDS011;3141;49.234;9.326;2024-02-15T00:10:56;10.20;;;5.90;;
6215;SDS011;3141;49.234;9.326;2024-02-15T00:11:39;8.60;;;5.63;;
6215;SDS011;3141;49.234;9.326;2024-02-15T00:12:21;6.00;;;5.17;;
6215;SDS011;3141;49.234;9.326;2024-02-15T00:13:03;7.93;;;5.80;;
6215;SDS011;3141;49.234;9.326;2024-02-15T00:13:48;7.18;;;5.57;;
6215;SDS011;3141;49.234;9.326;2024-02-15T00:14:30;8.97;;;5.67;;
6215;SDS011;3141;49.234;9.326;2024-02-15T00:15:13;7.00;;;5.30;;
6215;SDS011;3141;49.234;9.326;2024-02-15T00:15:55;10.20;;;5.93;;
6215;SDS011;3141;49.234;9.326;2024-02-15T00:16:38;6.80;;;5.67;;
6215;SDS011;3141;49.234;9.326;2024-02-15T00:17:20;10.93;;;5.77;;
6215;SDS011;3141;49.234;9.326;2024-02-15T00:18:02;10.77;;;5.47;;
6215;SDS011;3141;49.234;9.326;2024-02-15T00:18:45;6.00;;;4.83;;
6215;SDS011;3141;49.234;9.326;2024-02-15T00:19:28;6.03;;;4.63;;
6215;SDS011;3141;49.234;9.326;2024-02-15T00:20:12;5.95;;;5.22;;
6215;SDS011;3141;49.234;9.326;2024-02-15T00:20:54;10.87;;;5.70;;
6215;SDS011;3141;49.234;9.326;2024-02-15T00:21:37;9.80;;;5.73;;
6215;SDS011;3141;49.234;9.326;2024-02-15T00:22:19;10.97;;;5.47;;
6215;SDS011;3141;49.234;9.326;2024-02-15T00:23:03;7.88;;;5.18;;
6215;SDS011;3141;49.234;9.326;2024-02-15T00:23:45;12.57;;;5.57;;
6215;SDS011;3141;49.234;9.326;2024-02-15T00:24:27;7.00;;;5.57;;
6215;SDS011;3141;49.234;9.326;2024-02-15T00:25:10;7.87;;;5.67;;
6215;SDS011;3141;49.234;9.326;2024-02-15T00:25:53;6.75;;;5.07;;
6215;SDS011;3141;49.234;9.326;2024-02-15T00:26:35;10.40;;;5.67;;
6215;SDS011;3141;49.234;9.326;2024-02-15T00:27:18;8.60;;;5.70;;
6215;SDS011;3141;49.234;9.326;2024-02-15T00:28:00;10.70;;;5.87;;
6215;SDS011;3141;49.234;9.326;2024-02-15T00:28:43;8.32;;;5.43;;
6215;SDS011;3141;49.234;9.326;2024-02-15T00:29:26;8.93;;;5.80;;
6215;SDS011;3141;49.234;9.326;2024-02-15T00:30:10;8.45;;;5.90;;
6215;SDS011;3141;49.234;9.326;2024-02-15T00:30:53;8.87;;;5.60;;
6215;SDS011;3141;49.234;9.326;2024-02-15T00:31:35;6.97;;;5.83;;
6215;SDS011;3141;49.234;9.326;2024-02-15T00:32:18;9.13;;;5.80;;
6215;SDS011;3141;49.234;9.326;2024-02-15T00:33:00;7.63;;;6.13;;
6215;SDS011;3141;49.234;9.326;2024-02-15T00:33:44;8.60;;;6.03;;
6215;SDS011;3141;49.234;9.326;2024-02-15T00:34:27;9.60;;;5.93;;
6215;SDS011;3141;49.234;9.326;2024-02-15T00:35:09;8.73;;;6.07;;
6215;SDS011;3141;49.234;9.326;2024-02-15T00:35:51;8.20;;;5.87;;
6215;SDS011;3141;49.234;9.326;2024-02-15T00:36:34;9.53;;;5.80;;
6215;SDS011;3141;49.234;9.326;2024-02-15T00:37:16;8.57;;;5.87;;
6215;SDS011;3141;49.234;9.326;2024-02-15T00:37:58;8.27;;;5.83;;
6215;SDS011;3141;49.234;9.326;2024-02-15T00:38:41;9.50;;;6.50;;
6215;SDS011;3141;49.234;9.326;2024-02-15T00:39:25;8.18;;;6.10;;
6215;SDS011;3141;49.234;9.326;2024-02-15T00:40:07;13.10;;;5.70;;
6215;SDS011;3141;49.234;9.326;2024-02-15T00:40:50;8.65;;;5.95;;
6215;SDS011;3141;49.234;9.326;2024-02-15T00:41:33;9.63;;;5.97;;
6215;SDS011;3141;49.234;9.326;2024-02-15T00:42:15;10.17;;;6.30;;
6215;SDS011;3141;49.234;9.326;2024-02-15T00:42:58;8.07;;;6.23;;
6215;SDS011;3141;49.234;9.326;2024-02-15T00:43:40;8.37;;;5.23;;
6215;SDS011;3141;49.234;9.326;2024-02-15T00:44:22;11.57;;;6.70;;
6215;SDS011;3141;49.234;9.326;2024-02-15T00:45:05;13.43;;;6.47;;
6215;SDS011;3141;49.234;9.326;2024-02-15T00:45:48;7.87;;;5.77;;
6215;SDS011;3141;49.234;9.326;2024-02-15T00:46:30;11.07;;;6.37;;
6215;SDS011;3141;49.234;9.326;2024-02-15T00:47:12;11.43;;;6.07;;
6215;SDS011;3141;49.234;9.326;2024-02-15T00:47:55;10.27;;;6.90;;
6215;SDS011;3141;49.234;9.326;2024-02-15T00:48:38;11.70;;;6.30;;
6215;SDS011;3141;49.234;9.326;2024-02-15T00:49:20;11.57;;;5.67;;
6215;SDS011;3141;49.234;9.326;2024-02-15T00:50:03;11.13;;;6.07;;
6215;SDS011;3141;49.234;9.326;2024-02-15T00:50:45;8.63;;;6.70;;
6215;SDS011;3141;49.234;9.326;2024-02-15T00:51:28;10.43;;;5.47;;
6215;SDS011;3141;49.234;9.326;2024-02-15T00:52:10;11.33;;;6.70;;
6215;SDS011;3141;49.234;9.326;2024-02-15T00:52:52;10.73;;;6.43;;
6215;SDS011;3141;49.234;9.326;2024-02-15T00:53:35;10.90;;;6.53;;
6215;SDS011;3141;49.234;9.326;2024-02-15T00:54:17;9.63;;;6.20;;
6215;SDS011;3141;49.234;9.326;2024-02-15T00:54:59;6.90;;;5.83;;
6215;SDS011;3141;49.234;9.326;2024-02-15T00:55:42;10.47;;;6.43;;
6215;SDS011;3141;49.234;9.326;2024-02-15T00:56:24;10.50;;;6.47;;
6215;SDS011;3141;49.234;9.326;2024-02-15T00:57:06;7.77;;;6.10;;
6215;SDS011;3141;49.234;9.326;2024-02-15T00:57:49;12.67;;;6.83;;
6215;SDS011;3141;49.234;9.326;2024-02-15T00:58:31;8.47;;;6.63;;
6215;SDS011;3141;49.234;9.326;2024-02-15T00:59:13;9.33;;;6.30;;
6215;SDS011;3141;49.234;9.326;2024-02-15T00:59:56;8.40;;;6.30;;
6215;SDS011;3141;49.234;9.326;2024-02-15T01:00:38;8.70;;;6.43;;
6215;SDS011;3141;49.234;9.326;2024-02-15T01:01:21;12.80;;;6.93;;
6215;SDS011;3141;49.234;9.326;2024-02-15T01:02:04;9.68;;;6.70;;
6215;SDS011;3141;49.234;9.326;2024-02-15T01:02:47;9.07;;;6.15;;
6215;SDS011;3141;49.234;9.326;2024-02-15T01:03:29;13.40;;;6.20;;
6215;SDS011;3141;49.234;9.326;2024-02-15T01:04:12;8.00;;;6.43;;
6215;SDS011;3141;49.234;9.326;2024-02-15T01:04:55;10.57;;;6.83;;
6215;SDS011;3141;49.234;9.326;2024-02-15T01:05:39;10.05;;;6.13;;
6215;SDS011;3141;49.234;9.326;2024-02-15T01:06:21;9.17;;;6.60;;
6215;SDS011;3141;49.234;9.326;2024-02-15T01:07:04;9.80;;;6.50;;
6215;SDS011;3141;49.234;9.326;2024-02-15T01:07:46;11.37;;;6.20;;
6215;SDS011;3141;49.234;9.326;2024-02-15T01:08:30;8.80;;;6.32;;
6215;SDS011;3141;49.234;9.326;2024-02-15T01:09:13;9.60;;;6.50;;
6215;SDS011;3141;49.234;9.326;2024-02-15T01:09:56;8.63;;;6.07;;
6215;SDS011;3141;49.234;9.326;2024-02-15T01:10:38;10.07;;;6.80;;
6215;SDS011;3141;49.234;9.326;2024-02-15T01:11:21;12.17;;;7.57;;
6215;SDS011;3141;49.234;9.326;2024-02-15T01:12:03;14.00;;;7.47;;
6215;SDS011;3141;49.234;9.326;2024-02-15T01:12:46;7.13;;;6.13;;
6215;SDS011;3141;49.234;9.326;2024-02-15T01:13:28;10.07;;;6.60;;
6215;SDS011;3141;49.234;9.326;2024-02-15T01:14:10;7.90;;;6.43;;
6215;SDS011;3141;49.234;9.326;2024-02-15T01:14:52;10.33;;;7.20;;
6215;SDS011;3141;49.234;9.326;2024-02-15T01:15:35;8.17;;;6.30;;
6215;SDS011;3141;49.234;9.326;2024-02-15T01:16:19;9.07;;;6.30;;
6215;SDS011;3141;49.234;9.326;2024-02-15T01:17:03;10.70;;;7.32;;
6215;SDS011;3141;49.234;9.326;2024-02-15T01:17:46;10.77;;;7.10;;
6215;SDS011;3141;49.234;9.326;2024-02-15T01:18:28;10.37;;;6.30;;
6215;SDS011;3141;49.234;9.326;2024-02-15T01:19:11;12.43;;;7.28;;
6215;SDS011;3141;49.234;9.326;2024-02-15T01:19:54;8.43;;;6.60;;
6215;SDS011;3141;49.234;9.326;2024-02-15T01:20:37;12.55;;;6.75;;
6215;SDS011;3141;49.234;9.326;2024-02-15T01:21:20;11.60;;;7.23;;
6215;SDS011;3141;49.234;9.326;2024-02-15T01:22:02;9.37;;;6.67;;
6215;SDS011;3141;49.234;9.326;2024-02-15T01:22:44;11.03;;;6.77;;
6215;SDS011;3141;49.234;9.326;2024-02-15T01:23:27;11.27;;;6.63;;
6215;SDS011;3141;49.234;9.326;2024-02-15T01:24:09;9.13;;;6.67;;
6215;SDS011;3141;49.234;9.326;2024-02-15T01:24:52;11.30;;;7.20;;
6215;SDS011;3141;49.234;9.326;2024-02-15T01:25:35;9.10;;;6.50;;
6215;SDS011;3141;49.234;9.326;2024-02-15T01:26:17;9.37;;;7.60;;
6215;SDS011;3141;49.234;9.326;2024-02-15T01:26:59;9.47;;;7.33;;
6215;SDS011;3141;49.234;9.326;2024-02-15T01:27:42;14.53;;;7.60;;
6215;SDS011;3141;49.234;9.326;2024-02-15T01:28:24;10.23;;;7.03;;
6215;SDS011;3141;49.234;9.326;2024-02-15T01:29:06;9.97;;;6.67;;
6215;SDS011;3141;49.234;9.326;2024-02-15T01:29:52;8.80;;;6.53;;
6215;SDS011;3141;49.234;9.326;2024-02-15T01:30:35;12.63;;;6.77;;
6215;SDS011;3141;49.234;9.326;2024-02-15T01:31:17;12.33;;;6.53;;
6215;SDS011;3141;49.234;9.326;2024-02-15T01:31:59;14.00;;;7.00;;
6215;SDS011;3141;49.234;9.326;2024-02-15T01:32:41;11.50;;;7.20;;
6215;SDS011;3141;49.234;9.326;2024-02-15T01:33:24;10.10;;;6.57;;
6215;SDS011;3141;49.234;9.326;2024-02-15T01:34:06;11.57;;;7.07;;
6215;SDS011;3141;49.234;9.326;2024-02-15T01:34:48;9.37;;;6.47;;
6215;SDS011;3141;49.234;9.326;2024-02-15T01:35:33;11.52;;;6.80;;
6215;SDS011;3141;49.234;9.326;2024-02-15T01:36:16;8.93;;;6.63;;
6215;SDS011;3141;49.234;9.326;2024-02-15T01:36:59;9.32;;;6.88;;
6215;SDS011;3141;49.234;9.326;2024-02-15T01:37:41;8.90;;;6.87;;
6215;SDS011;3141;49.234;9.326;2024-02-15T01:38:23;10.00;;;7.13;;
6215;SDS011;3141;49.234;9.326;2024-02-15T01:39:06;7.63;;;6.07;;
6215;SDS011;3141;49.234;9.326;2024-02-15T01:39:48;7.93;;;6.17;;
6215;SDS011;3141;49.234;9.326;2024-02-15T01:40:32;9.93;;;7.10;;
6215;SDS011;3141;49.234;9.326;2024-02-15T01:41:14;9.23;;;6.13;;
6215;SDS011;3141;49.234;9.326;2024-02-15T01:41:57;8.03;;;6.17;;
6215;SDS011;3141;49.234;9.326;2024-02-15T01:42:39;11.23;;;6.10;;
6215;SDS011;3141;49.234;9.326;2024-02-15T01:43:21;10.80;;;6.13;;
6215;SDS011;3141;49.234;9.326;2024-02-15T01:44:04;8.30;;;6.37;;
6215;SDS011;3141;49.234;9.326;2024-02-15T01:44:48;8.60;;;6.35;;
6215;SDS011;3141;49.234;9.326;2024-02-15T01:45:31;7.13;;;5.97;;
6215;SDS011;3141;49.234;9.326;2024-02-15T01:46:13;8.70;;;6.57;;
6215;SDS011;3141;49.234;9.326;2024-02-15T01:46:57;9.63;;;6.55;;
6215;SDS011;3141;49.234;9.326;2024-02-15T01:47:40;10.20;;;6.43;;
6215;SDS011;3141;49.234;9.326;2024-02-15T01:48:24;9.10;;;6.45;;
6215;SDS011;3141;49.234;9.326;2024-02-15T01:49:07;8.90;;;6.17;;
6215;SDS011;3141;49.234;9.326;2024-02-15T01:49:49;11.20;;;7.10;;
6215;SDS011;3141;49.234;9.326;2024-02-15T01:50:34;7.53;;;6.40;;
6215;SDS011;3141;49.234;9.326;2024-02-15T01:51:17;10.27;;;6.80;;
6215;SDS011;3141;49.234;9.326;2024-02-15T01:52:00;10.57;;;7.00;;
6215;SDS011;3141;49.234;9.326;2024-02-15T01:52:44;12.10;;;6.97;;
6215;SDS011;3141;49.234;9.326;2024-02-15T01:53:29;7.45;;;6.53;;
6215;SDS011;3141;49.234;9.326;2024-02-15T01:54:12;7.17;;;6.10;;
6215;SDS011;3141;49.234;9.326;2024-02-15T01:54:59;8.77;;;6.10;;
6215;SDS011;3141;49.234;9.326;2024-02-15T01:55:42;12.75;;;5.40;;
6215;SDS011;3141;49.234;9.326;2024-02-15T01:56:25;9.80;;;6.97;;
6215;SDS011;3141;49.234;9.326;2024-02-15T01:57:08;10.60;;;6.30;;
6215;SDS011;3141;49.234;9.326;2024-02-15T01:57:50;7.23;;;6.17;;
6215;SDS011;3141;49.234;9.326;2024-02-15T01:58:33;6.97;;;6.13;;
6215;SDS011;3141;49.234;9.326;2024-02-15T01:59:16;8.23;;;5.88;;
6215;SDS011;3141;49.234;9.326;2024-02-15T01:59:59;8.87;;;6.00;;
6215;SDS011;3141;49.234;9.326;2024-02-15T02:00:41;11.30;;;5.97;;
6215;SDS011;3141;49.234;9.326;2024-02-15T02:01:24;9.43;;;6.20;;
6215;SDS011;3141;49.234;9.326;2024-02-15T02:02:08;7.97;;;6.10;;
6215;SDS011;3141;49.234;9.326;2024-02-15T02:02:53;10.73;;;6.25;;
6215;SDS011;3141;49.234;9.326;2024-02-15T02:03:36;10.38;;;6.38;;
6215;SDS011;3141;49.234;9.326;2024-02-15T02:04:18;8.50;;;6.03;;
6215;SDS011;3141;49.234;9.326;2024-02-15T02:05:01;8.23;;;5.87;;
6215;SDS011;3141;49.234;9.326;2024-02-15T02:05:44;9.82;;;6.65;;
6215;SDS011;3141;49.234;9.326;2024-02-15T02:06:27;10.80;;;6.67;;
6215;SDS011;3141;49.234;9.326;2024-02-15T02:07:10;8.65;;;6.38;;
6215;SDS011;3141;49.234;9.326;2024-02-15T02:07:52;9.37;;;6.13;;
6215;SDS011;3141;49.234;9.326;2024-02-15T02:08:35;9.83;;;6.67;;
6215;SDS011;3141;49.234;9.326;2024-02-15T02:09:17;8.13;;;6.20;;
6215;SDS011;3141;49.234;9.326;2024-02-15T02:10:00;14.47;;;7.10;;
6215;SDS011;3141;49.234;9.326;2024-02-15T02:10:42;7.50;;;6.00;;
6215;SDS011;3141;49.234;9.326;2024-02-15T02:11:24;9.47;;;6.67;;
6215;SDS011;3141;49.234;9.326;2024-02-15T02:12:08;10.80;;;6.47;;
6215;SDS011;3141;49.234;9.326;2024-02-15T02:12:51;12.27;;;6.72;;
6215;SDS011;3141;49.234;9.326;2024-02-15T02:13:33;9.13;;;6.20;;
6215;SDS011;3141;49.234;9.326;2024-02-15T02:14:17;14.65;;;6.50;;
6215;SDS011;3141;49.234;9.326;2024-02-15T02:15:02;7.43;;;6.20;;
6215;SDS011;3141;49.234;9.326;2024-02-15T02:15:45;8.77;;;6.07;;
6215;SDS011;3141;49.234;9.326;2024-02-15T02:16:30;7.90;;;6.17;;
6215;SDS011;3141;49.234;9.326;2024-02-15T02:17:14;9.80;;;6.10;;
6215;SDS011;3141;49.234;9.326;2024-02-15T02:17:57;9.97;;;6.70;;
6215;SDS011;3141;49.234;9.326;2024-02-15T02:18:40;9.10;;;6.47;;
6215;SDS011;3141;49.234;9.326;2024-02-15T02:19:23;8.60;;;6.43;;
6215;SDS011;3141;49.234;9.326;2024-02-15T02:20:06;11.40;;;6.27;;
6215;SDS011;3141;49.234;9.326;2024-02-15T02:20:50;8.63;;;6.28;;
6215;SDS011;3141;49.234;9.326;2024-02-15T02:21:32;11.23;;;7.07;;
6215;SDS011;3141;49.234;9.326;2024-02-15T02:22:16;12.35;;;6.68;;
6215;SDS011;3141;49.234;9.326;2024-02-15T02:23:13;15.30;;;6.32;;
6215;SDS011;3141;49.234;9.326;2024-02-15T02:23:56;7.40;;;5.60;;
6215;SDS011;3141;49.234;9.326;2024-02-15T02:24:59;7.38;;;6.18;;
6215;SDS011;3141;49.234;9.326;2024-02-15T02:25:50;8.43;;;5.95;;
6215;SDS011;3141;49.234;9.326;2024-02-15T02:26:32;10.27;;;7.00;;
6215;SDS011;3141;49.234;9.326;2024-02-15T02:27:14;9.50;;;6.03;;
6215;SDS011;3141;49.234;9.326;2024-02-15T02:27:57;6.67;;;5.97;;
6215;SDS011;3141;49.234;9.326;2024-02-15T02:28:39;10.87;;;6.37;;
6215;SDS011;3141;49.234;9.326;2024-02-15T02:29:22;10.33;;;6.43;;
6215;SDS011;3141;49.234;9.326;2024-02-15T02:30:05;11.27;;;6.47;;
6215;SDS011;3141;49.234;9.326;2024-02-15T02:30:56;7.32;;;5.90;;
6215;SDS011;3141;49.234;9.326;2024-02-15T02:31:39;7.27;;;5.90;;
6215;SDS011;3141;49.234;9.326;2024-02-15T02:32:22;13.20;;;6.43;;
6215;SDS011;3141;49.234;9.326;2024-02-15T02:33:04;11.77;;;6.13;;
6215;SDS011;3141;49.234;9.326;2024-02-15T02:33:50;9.48;;;6.30;;
6215;SDS011;3141;49.234;9.326;2024-02-15T02:34:34;7.90;;;5.97;;
6215;SDS011;3141;49.234;9.326;2024-02-15T02:35:17;9.82;;;6.60;;
6215;SDS011;3141;49.234;9.326;2024-02-15T02:36:02;11.95;;;6.85;;
6215;SDS011;3141;49.234;9.326;2024-02-15T02:36:45;11.40;;;6.10;;
6215;SDS011;3141;49.234;9.326;2024-02-15T02:37:29;7.30;;;5.82;;
6215;SDS011;3141;49.234;9.326;2024-02-15T02:38:12;7.93;;;6.13;;
6215;SDS011;3141;49.234;9.326;2024-02-15T02:38:55;7.75;;;5.88;;
6215;SDS011;3141;49.234;9.326;2024-02-15T02:39:42;7.80;;;6.55;;
6215;SDS011;3141;49.234;9.326;2024-02-15T02:40:25;9.23;;;6.40;;
6215;SDS011;3141;49.234;9.326;2024-02-15T02:41:07;13.07;;;6.27;;
6215;SDS011;3141;49.234;9.326;2024-02-15T02:41:49;13.83;;;6.47;;
6215;SDS011;3141;49.234;9.326;2024-02-15T02:42:32;10.67;;;6.53;;
6215;SDS011;3141;49.234;9.326;2024-02-15T02:43:14;8.47;;;6.30;;
6215;SDS011;3141;49.234;9.326;2024-02-15T02:43:56;9.97;;;6.00;;
6215;SDS011;3141;49.234;9.326;2024-02-15T02:44:39;7.43;;;5.80;;
6215;SDS011;3141;49.234;9.326;2024-02-15T02:45:21;7.33;;;6.20;;
6215;SDS011;3141;49.234;9.326;2024-02-15T02:46:04;9.43;;;5.83;;
6215;SDS011;3141;49.234;9.326;2024-02-15T02:46:47;9.60;;;5.97;;
6215;SDS011;3141;49.234;9.326;2024-02-15T02:47:30;6.57;;;5.70;;
6215;SDS011;3141;49.234;9.326;2024-02-15T02:48:12;9.23;;;5.93;;
6215;SDS011;3141;49.234;9.326;2024-02-15T02:48:55;8.47;;;6.23;;
6215;SDS011;3141;49.234;9.326;2024-02-15T02:49:37;7.53;;;5.53;;
6215;SDS011;3141;49.234;9.326;2024-02-15T02:50:20;7.00;;;5.57;;
6215;SDS011;3141;49.234;9.326;2024-02-15T02:51:03;7.65;;;5.97;;
6215;SDS011;3141;49.234;9.326;2024-02-15T02:51:46;8.00;;;5.67;;
6215;SDS011;3141;49.234;9.326;2024-02-15T02:52:28;6.73;;;5.67;;
6215;SDS011;3141;49.234;9.326;2024-02-15T02:53:11;6.47;;;5.57;;
6215;SDS011;3141;49.234;9.326;2024-02-15T02:53:55;8.18;;;6.13;;
6215;SDS011;3141;49.234;9.326;2024-02-15T02:54:37;6.00;;;5.17;;
6215;SDS011;3141;49.234;9.326;2024-02-15T02:55:20;5.97;;;5.37;;
6215;SDS011;3141;49.234;9.326;2024-02-15T02:56:02;7.43;;;5.67;;
6215;SDS011;3141;49.234;9.326;2024-02-15T02:56:45;8.05;;;5.68;;
6215;SDS011;3141;49.234;9.326;2024-02-15T02:57:28;7.53;;;5.13;;
6215;SDS011;3141;49.234;9.326;2024-02-15T02:58:10;7.30;;;5.47;;
6215;SDS011;3141;49.234;9.326;2024-02-15T02:58:52;7.57;;;5.77;;
6215;SDS011;3141;49.234;9.326;2024-02-15T02:59:35;6.23;;;5.63;;
6215;SDS011;3141;49.234;9.326;2024-02-15T03:00:17;8.07;;;5.37;;
6215;SDS011;3141;49.234;9.326;2024-02-15T03:01:00;6.73;;;5.10;;
6215;SDS011;3141;49.234;9.326;2024-02-15T03:01:43;9.77;;;5.20;;
6215;SDS011;3141;49.234;9.326;2024-02-15T03:02:25;7.47;;;4.80;;
6215;SDS011;3141;49.234;9.326;2024-02-15T03:03:08;10.37;;;5.57;;
6215;SDS011;3141;49.234;9.326;2024-02-15T03:03:51;6.65;;;4.93;;
6215;SDS011;3141;49.234;9.326;2024-02-15T03:04:33;6.40;;;4.90;;
6215;SDS011;3141;49.234;9.326;2024-02-15T03:05:16;9.03;;;5.37;;
6215;SDS011;3141;49.234;9.326;2024-02-15T03:05:58;8.67;;;5.27;;
6215;SDS011;3141;49.234;9.326;2024-02-15T03:06:40;5.77;;;5.07;;
6215;SDS011;3141;49.234;9.326;2024-02-15T03:07:24;9.13;;;5.40;;
6215;SDS011;3141;49.234;9.326;2024-02-15T03:08:08;6.10;;;5.03;;
6215;SDS011;3141;49.234;9.326;2024-02-15T03:08:51;5.95;;;4.85;;
6215;SDS011;3141;49.234;9.326;2024-02-15T03:09:36;7.18;;;5.28;;
6215;SDS011;3141;49.234;9.326;2024-02-15T03:10:19;8.00;;;5.90;;
6215;SDS011;3141;49.234;9.326;2024-02-15T03:11:01;6.37;;;4.87;;
6215;SDS011;3141;49.234;9.326;2024-02-15T03:11:45;7.25;;;5.00;;
6215;SDS011;3141;49.234;9.326;2024-02-15T03:12:27;8.10;;;5.87;;
6215;SDS011;3141;49.234;9.326;2024-02-15T03:13:11;5.63;;;5.03;;
6215;SDS011;3141;49.234;9.326;2024-02-15T03:13:54;5.83;;;5.13;;
6215;SDS011;3141;49.234;9.326;2024-02-15T03:14:36;5.77;;;5.17;;
6215;SDS011;3141;49.234;9.326;2024-02-15T03:15:18;7.73;;;5.20;;
6215;SDS011;3141;49.234;9.326;2024-02-15T03:16:01;7.53;;;6.03;;
6215;SDS011;3141;49.234;9.326;2024-02-15T03:16:43;7.87;;;4.80;;
6215;SDS011;3141;49.234;9.326;2024-02-15T03:17:25;7.30;;;5.13;;
6215;SDS011;3141;49.234;9.326;2024-02-15T03:18:08;6.20;;;5.03;;
6215;SDS011;3141;49.234;9.326;2024-02-15T03:18:51;7.73;;;5.40;;
6215;SDS011;3141;49.234;9.326;2024-02-15T03:19:34;6.10;;;5.32;;
6215;SDS011;3141;49.234;9.326;2024-02-15T03:20:17;9.40;;;5.33;;
6215;SDS011;3141;49.234;9.326;2024-02-15T03:21:02;8.55;;;5.45;;
6215;SDS011;3141;49.234;9.326;2024-02-15T03:21:46;6.55;;;5.50;;
6215;SDS011;3141;49.234;9.326;2024-02-15T03:22:28;8.03;;;5.13;;
6215;SDS011;3141;49.234;9.326;2024-02-15T03:23:11;6.97;;;4.93;;
6215;SDS011;3141;49.234;9.326;2024-02-15T03:23:53;7.57;;;5.07;;
6215;SDS011;3141;49.234;9.326;2024-02-15T03:24:36;8.40;;;5.20;;
6215;SDS011;3141;49.234;9.326;2024-02-15T03:25:18;8.07;;;5.47;;
6215;SDS011;3141;49.234;9.326;2024-02-15T03:26:01;6.20;;;4.90;;
6215;SDS011;3141;49.234;9.326;2024-02-15T03:26:43;7.30;;;5.05;;
6215;SDS011;3141;49.234;9.326;2024-02-15T03:27:26;7.73;;;5.37;;
6215;SDS011;3141;49.234;9.326;2024-02-15T03:28:08;7.80;;;5.37;;
6215;SDS011;3141;49.234;9.326;2024-02-15T03:28:51;8.67;;;5.40;;
6215;SDS011;3141;49.234;9.326;2024-02-15T03:29:34;5.23;;;4.70;;
6215;SDS011;3141;49.234;9.326;2024-02-15T03:30:18;6.18;;;5.00;;
6215;SDS011;3141;49.234;9.326;2024-02-15T03:31:01;6.57;;;5.45;;
6215;SDS011;3141;49.234;9.326;2024-02-15T03:31:44;11.43;;;6.07;;
6215;SDS011;3141;49.234;9.326;2024-02-15T03:32:27;6.87;;;5.80;;
6215;SDS011;3141;49.234;9.326;2024-02-15T03:33:09;8.17;;;5.67;;
6215;SDS011;3141;49.234;9.326;2024-02-15T03:33:51;8.67;;;5.33;;
6215;SDS011;3141;49.234;9.326;2024-02-15T03:34:35;7.72;;;5.68;;
6215;SDS011;3141;49.234;9.326;2024-02-15T03:35:18;8.77;;;5.87;;
6215;SDS011;3141;49.234;9.326;2024-02-15T03:36:01;9.02;;;5.65;;
6215;SDS011;3141;49.234;9.326;2024-02-15T03:36:44;5.80;;;5.20;;
6215;SDS011;3141;49.234;9.326;2024-02-15T03:37:26;6.63;;;5.10;;
6215;SDS011;3141;49.234;9.326;2024-02-15T03:38:09;7.10;;;5.50;;
6215;SDS011;3141;49.234;9.326;2024-02-15T03:38:51;10.67;;;5.80;;
6215;SDS011;3141;49.234;9.326;2024-02-15T03:39:35;8.68;;;5.65;;
6215;SDS011;3141;49.234;9.326;2024-02-15T03:40:20;7.65;;;5.80;;
6215;SDS011;3141;49.234;9.326;2024-02-15T03:41:03;7.40;;;5.38;;
6215;SDS011;3141;49.234;9.326;2024-02-15T03:41:45;6.60;;;5.50;;
6215;SDS011;3141;49.234;9.326;2024-02-15T03:42:28;9.03;;;6.73;;
6215;SDS011;3141;49.234;9.326;2024-02-15T03:43:10;10.67;;;6.47;;
6215;SDS011;3141;49.234;9.326;2024-02-15T03:43:52;8.70;;;5.93;;
6215;SDS011;3141;49.234;9.326;2024-02-15T03:44:35;8.60;;;6.27;;
6215;SDS011;3141;49.234;9.326;2024-02-15T03:45:17;11.57;;;6.53;;
6215;SDS011;3141;49.234;9.326;2024-02-15T03:46:00;8.20;;;6.03;;
6215;SDS011;3141;49.234;9.326;2024-02-15T03:46:42;8.30;;;6.53;;
6215;SDS011;3141;49.234;9.326;2024-02-15T03:47:25;8.87;;;6.87;;
6215;SDS011;3141;49.234;9.326;2024-02-15T03:48:07;9.60;;;6.57;;
6215;SDS011;3141;49.234;9.326;2024-02-15T03:48:50;11.07;;;6.20;;
6215;SDS011;3141;49.234;9.326;2024-02-15T03:49:33;10.75;;;6.57;;
6215;SDS011;3141;49.234;9.326;2024-02-15T03:50:15;8.00;;;6.07;;
6215;SDS011;3141;49.234;9.326;2024-02-15T03:50:58;9.63;;;6.37;;
6215;SDS011;3141;49.234;9.326;2024-02-15T03:51:40;6.87;;;6.13;;
6215;SDS011;3141;49.234;9.326;2024-02-15T03:52:23;6.97;;;5.30;;
6215;SDS011;3141;49.234;9.326;2024-02-15T03:53:07;9.80;;;5.90;;
6215;SDS011;3141;49.234;9.326;2024-02-15T03:53:52;7.38;;;5.78;;
6215;SDS011;3141;49.234;9.326;2024-02-15T03:54:35;8.30;;;6.10;;
6215;SDS011;3141;49.234;9.326;2024-02-15T03:55:18;6.47;;;5.73;;
6215;SDS011;3141;49.234;9.326;2024-02-15T03:56:00;8.33;;;5.90;;
6215;SDS011;3141;49.234;9.326;2024-02-15T03:56:46;9.93;;;6.20;;
6215;SDS011;3141;49.234;9.326;2024-02-15T03:57:33;8.68;;;6.20;;
6215;SDS011;3141;49.234;9.326;2024-02-15T03:58:16;8.60;;;5.60;;
6215;SDS011;3141;49.234;9.326;2024-02-15T03:58:58;7.10;;;6.40;;
6215;SDS011;3141;49.234;9.326;2024-02-15T03:59:41;8.23;;;5.90;;
6215;SDS011;3141;49.234;9.326;2024-02-15T04:00:23;6.23;;;5.53;;
6215;SDS011;3141;49.234;9.326;2024-02-15T04:01:06;8.18;;;6.03;;
6215;SDS011;3141;49.234;9.326;2024-02-15T04:01:55;11.05;;;5.78;;
6215;SDS011;3141;49.234;9.326;2024-02-15T04:02:38;8.05;;;6.20;;
6215;SDS011;3141;49.234;9.326;2024-02-15T04:03:22;7.55;;;6.10;;
6215;SDS011;3141;49.234;9.326;2024-02-15T04:04:05;9.17;;;6.10;;
6215;SDS011;3141;49.234;9.326;2024-02-15T04:04:47;5.87;;;5.10;;
6215;SDS011;3141;49.234;9.326;2024-02-15T04:05:29;8.67;;;6.00;;
6215;SDS011;3141;49.234;9.326;2024-02-15T04:06:12;8.63;;;6.77;;
6215;SDS011;3141;49.234;9.326;2024-02-15T04:06:54;7.07;;;6.00;;
6215;SDS011;3141;49.234;9.326;2024-02-15T04:07:36;9.17;;;6.07;;
6215;SDS011;3141;49.234;9.326;2024-02-15T04:08:19;8.83;;;5.97;;
6215;SDS011;3141;49.234;9.326;2024-02-15T04:09:01;7.77;;;6.00;;
6215;SDS011;3141;49.234;9.326;2024-02-15T04:09:43;7.47;;;6.30;;
6215;SDS011;3141;49.234;9.326;2024-02-15T04:10:26;10.17;;;6.30;;
6215;SDS011;3141;49.234;9.326;2024-02-15T04:11:08;9.07;;;6.20;;
6215;SDS011;3141;49.234;9.326;2024-02-15T04:11:52;8.70;;;6.50;;
6215;SDS011;3141;49.234;9.326;2024-02-15T04:12:34;8.40;;;6.10;;
6215;SDS011;3141;49.234;9.326;2024-02-15T04:13:17;9.70;;;6.13;;
6215;SDS011;3141;49.234;9.326;2024-02-15T04:13:59;7.93;;;6.27;;
6215;SDS011;3141;49.234;9.326;2024-02-15T04:14:41;8.50;;;6.30;;
6215;SDS011;3141;49.234;9.326;2024-02-15T04:15:27;10.35;;;6.45;;
6215;SDS011;3141;49.234;9.326;2024-02-15T04:16:09;7.23;;;5.90;;
6215;SDS011;3141;49.234;9.326;2024-02-15T04:16:51;11.03;;;6.20;;
6215;SDS011;3141;49.234;9.326;2024-02-15T04:17:33;8.50;;;5.73;;
6215;SDS011;3141;49.234;9.326;2024-02-15T04:18:16;9.60;;;5.93;;
6215;SDS011;3141;49.234;9.326;2024-02-15T04:18:59;9.63;;;5.53;;
6215;SDS011;3141;49.234;9.326;2024-02-15T04:19:41;7.63;;;5.90;;
6215;SDS011;3141;49.234;9.326;2024-02-15T04:20:26;13.32;;;6.28;;
6215;SDS011;3141;49.234;9.326;2024-02-15T04:21:09;7.40;;;5.40;;
6215;SDS011;3141;49.234;9.326;2024-02-15T04:21:51;11.93;;;6.73;;
6215;SDS011;3141;49.234;9.326;2024-02-15T04:22:34;7.30;;;5.73;;
6215;SDS011;3141;49.234;9.326;2024-02-15T04:23:18;8.48;;;6.35;;
6215;SDS011;3141;49.234;9.326;2024-02-15T04:24:01;8.03;;;5.83;;
6215;SDS011;3141;49.234;9.326;2024-02-15T04:24:43;7.70;;;6.33;;
6215;SDS011;3141;49.234;9.326;2024-02-15T04:25:27;8.48;;;5.60;;
6215;SDS011;3141;49.234;9.326;2024-02-15T04:26:13;7.53;;;5.78;;